Sunday, July 22, 2018, 2:54 AM GMT
Back to Local

CYZX, Greenwood, N. S.

Location: , , Canada Lat: 44.983
Local Time: 2:54 AM GMT ( 2:54 GMT) Lon: -64.917
Time Zone: GMT Elev: 91 ft

Show me the last for .
Show Coded

Time T Td Feel RH Dir Speed Gust Alt SLP Vis Weather Sky Remarks
2018-07-22 02:00 72 68 76 88 270° 3 - 30.19 30.19 15 SCT040 None
2018-07-22 01:00 72 68 76 88 280° 2 - 30.17 30.17 15 FEW050 None
2018-07-22 00:00 73 70 77 88 - Calm - 30.15 30.15 15 FEW017 BKN045 None
2018-07-21 23:19 75 70 79 83 360° 3 - 30.15 30.15 15 SCT017 BKN030 None
2018-07-21 23:00 75 70 79 83 10° 6 - 30.14 30.14 15 BKN023 None
2018-07-21 22:00 75 72 79 88 320° 7 - 30.14 30.14 15 BKN024 None
2018-07-21 21:43 77 72 81 83 340° 5 - 30.13 30.14 15 BKN024 None
2018-07-21 21:07 75 70 79 83 80° 6 - 30.13 30.13 15 -SHRA BKN024 None
2018-07-21 21:00 77 70 81 78 40° 5 - 30.13 30.13 15 BKN024 None
2018-07-21 20:00 77 70 81 78 20° 10 - 30.13 30.13 15 BKN024 None
2018-07-21 19:00 77 72 81 83 80° 8 - 30.12 30.12 15 BKN024 BKN035 None
2018-07-21 18:23 73 70 77 88 30° 7 - 30.14 30.14 15 -SHRA BKN016 None
2018-07-21 18:00 73 70 77 88 30° 7 - 30.14 30.14 15 -SHRA BKN016 None
2018-07-21 17:36 70 70 - 100 20° 7 - 30.15 30.15 4 -SHRA BR BKN016 None
2018-07-21 17:19 70 68 - 94 40° 7 - 30.15 30.15 2 -SHRA BR OVC016 None
2018-07-21 17:00 70 68 - 94 90° 6 - 30.15 30.15 2 -SHRA BR OVC016 None
2018-07-21 16:49 70 66 - 88 90° 7 - 30.15 30.15 2 -SHRA HZ OVC016 None
2018-07-21 16:34 72 66 76 83 70° 9 - 30.15 30.15 15 -DZ BKN016 None
2018-07-21 16:00 70 66 - 88 40° 10 - 30.16 30.16 15 BKN014 BKN040 None
2018-07-21 15:00 70 66 - 88 40° 9 - 30.17 30.17 15 BKN011 None
2018-07-21 14:00 66 64 - 93 50° 9 - 30.19 30.19 4 -SHRA BR SCT008 BKN011 None
2018-07-21 13:53 66 64 - 93 60° 9 - 30.19 30.19 6 -SHRA BR SCT008 BKN011 None
2018-07-21 13:00 66 64 - 93 50° 10 - 30.19 30.19 15 SCT008 BKN011 None
2018-07-21 12:00 64 64 - 100 80° 9 - 30.19 30.19 8 SCT005 BKN011 None
2018-07-21 11:20 64 63 - 93 80° 9 - 30.21 30.21 8 SCT005 BKN011 None
2018-07-21 11:00 63 63 - 100 60° 9 - 30.20 30.20 4 BR BKN005 BKN013 None
2018-07-21 10:33 63 63 - 100 90° 5 - 30.21 30.21 3 BR BKN005 None
2018-07-21 10:00 61 61 - 100 50° 5 - 30.21 30.21 2 BR OVC005 None
2018-07-21 09:30 61 61 - 100 10° 5 - 30.22 30.22 1 BR BKN005 BKN013 None
2018-07-21 09:00 61 61 - 100 50° 5 - 30.22 30.22 3 BR OVC005 None
2018-07-21 08:30 61 61 - 100 60° 5 - 30.21 30.21 3 BR OVC005 None
2018-07-21 08:00 59 59 - 100 20° 3 - 30.21 30.21 1 BR OVC003 None
2018-07-21 07:00 61 61 - 100 50° 6 - 30.21 30.21 1 BR BKN003 OVC011 None
2018-07-21 06:42 61 59 - 93 50° 5 - 30.21 30.21 1 BR BKN003 BKN011 None
2018-07-21 06:00 61 61 - 100 60° 5 - 30.22 30.22 8 SCT005 None
2018-07-21 05:26 61 59 - 93 130° 8 - 30.22 30.22 10 FEW002 SCT013 None
2018-07-21 05:00 61 57 - 87 110° 6 - 30.22 30.22 15 FEW250 None
2018-07-21 04:00 63 57 - 82 20° 2 - 30.23 30.23 15 CLR None
2018-07-21 03:00 66 59 - 77 140° 5 - 30.23 30.23 15 FEW250 None

Support USWX by starting your Amazon purchase here.